Time;durP1;ratioP1;P1;durP2;ratioP2;P2;SDS_P1;SDS_P2;PMS_P1;PMS_P2;Temp;Humidity;BMP_temperature;BMP_pressure;BME280_temperature;BME280_humidity;BME280_pressure;Samples;Min_cycle;Max_cycle;Signal;HPM_P1;HPM_P2
2021/07/07 00:00:32;;;;;;;1.83;1.20;;;;;;;;;;4951684;28;20067;-78
2021/07/07 00:03:01;;;;;;;1.80;1.10;;;;;;;;;;4952651;28;20039;-78
2021/07/07 00:05:28;;;;;;;1.80;1.20;;;;;;;;;;4950213;28;20044;-79
2021/07/07 00:07:57;;;;;;;2.53;1.20;;;;;;;;;;4948060;28;20074;-78
2021/07/07 00:10:32;;;;;;;1.80;1.20;;;;;;;;;;4948952;28;20097;-78
2021/07/07 00:12:59;;;;;;;1.75;1.10;;;;;;;;;;4948420;28;20035;-77
2021/07/07 00:15:31;;;;;;;2.15;1.15;;;;;;;;;;4944301;28;20067;-79
2021/07/07 00:17:57;;;;;;;2.28;1.13;;;;;;;;;;4946873;28;20059;-78
2021/07/07 00:20:23;;;;;;;2.17;1.10;;;;;;;;;;4948268;28;20067;-79
2021/07/07 00:22:54;;;;;;;1.80;1.27;;;;;;;;;;4947728;28;20039;-79
2021/07/07 00:25:21;;;;;;;1.73;1.02;;;;;;;;;;4951502;28;20059;-79
2021/07/07 00:27:47;;;;;;;1.92;1.20;;;;;;;;;;4943860;28;20040;-78
2021/07/07 00:30:13;;;;;;;1.50;1.10;;;;;;;;;;4938973;28;20082;-78
2021/07/07 00:32:40;;;;;;;1.52;1.17;;;;;;;;;;4950340;28;20058;-78
2021/07/07 00:35:06;;;;;;;2.03;1.23;;;;;;;;;;4950659;28;20528;-78
2021/07/07 00:37:33;;;;;;;2.03;1.10;;;;;;;;;;4946840;28;20066;-77
2021/07/07 00:39:59;;;;;;;2.22;1.08;;;;;;;;;;4965499;28;20062;-78
2021/07/07 00:42:26;;;;;;;1.60;1.10;;;;;;;;;;4950570;28;20063;-77
2021/07/07 00:44:52;;;;;;;1.35;1.00;;;;;;;;;;4952248;28;20114;-76
2021/07/07 00:47:18;;;;;;;1.35;1.00;;;;;;;;;;4942196;28;20567;-77
2021/07/07 00:49:45;;;;;;;2.45;1.40;;;;;;;;;;4961413;28;20122;-77
2021/07/07 00:52:11;;;;;;;1.50;1.00;;;;;;;;;;4946687;28;20091;-77
2021/07/07 00:54:38;;;;;;;1.10;0.93;;;;;;;;;;4946137;28;20101;-78
2021/07/07 00:57:05;;;;;;;1.67;1.10;;;;;;;;;;4950779;28;20062;-76
2021/07/07 00:59:32;;;;;;;3.10;1.50;;;;;;;;;;4947462;28;20070;-77
2021/07/07 01:02:00;;;;;;;2.10;1.20;;;;;;;;;;4949760;28;20035;-77
2021/07/07 01:04:26;;;;;;;1.73;1.20;;;;;;;;;;4952178;28;20066;-78
2021/07/07 01:06:53;;;;;;;2.65;1.20;;;;;;;;;;4951773;28;20054;-77
2021/07/07 01:09:19;;;;;;;1.25;1.00;;;;;;;;;;4947822;28;20055;-75
2021/07/07 01:11:46;;;;;;;2.50;1.08;;;;;;;;;;4950379;28;20063;-73
2021/07/07 01:14:12;;;;;;;1.30;1.00;;;;;;;;;;4946248;28;20039;-75
2021/07/07 01:16:42;;;;;;;1.73;0.90;;;;;;;;;;4948175;28;20471;-74
2021/07/07 01:19:09;;;;;;;2.00;1.00;;;;;;;;;;4948610;28;20051;-73
2021/07/07 01:21:35;;;;;;;3.10;1.13;;;;;;;;;;4947770;28;20481;-73
2021/07/07 01:24:05;;;;;;;2.47;1.20;;;;;;;;;;4949592;28;20078;-74
2021/07/07 01:26:34;;;;;;;1.83;1.00;;;;;;;;;;4939924;28;20031;-74
2021/07/07 01:29:04;;;;;;;2.28;1.23;;;;;;;;;;4942962;28;20112;-73
2021/07/07 01:31:33;;;;;;;1.85;1.20;;;;;;;;;;4947394;28;20076;-74
2021/07/07 01:34:00;;;;;;;1.23;0.80;;;;;;;;;;4947979;28;20109;-73
2021/07/07 01:36:34;;;;;;;1.85;0.95;;;;;;;;;;4946991;28;20119;-75
2021/07/07 01:39:01;;;;;;;2.13;1.13;;;;;;;;;;4949612;28;20126;-76
2021/07/07 01:41:27;;;;;;;3.10;1.15;;;;;;;;;;4963269;28;20046;-75
2021/07/07 01:43:53;;;;;;;1.58;0.98;;;;;;;;;;4941441;28;20099;-75
2021/07/07 01:46:20;;;;;;;1.35;1.00;;;;;;;;;;4950909;28;20039;-75
2021/07/07 01:48:47;;;;;;;2.85;1.10;;;;;;;;;;4930822;29;20120;-75
2021/07/07 01:51:13;;;;;;;2.13;1.10;;;;;;;;;;4947439;28;20521;-75
2021/07/07 01:53:39;;;;;;;1.73;1.05;;;;;;;;;;4943757;28;20125;-75
2021/07/07 01:56:06;;;;;;;1.27;0.80;;;;;;;;;;4947830;28;20067;-75
2021/07/07 01:58:32;;;;;;;2.47;1.00;;;;;;;;;;4943884;28;20113;-75
2021/07/07 02:01:01;;;;;;;1.73;0.82;;;;;;;;;;4941121;28;20052;-76
2021/07/07 02:03:28;;;;;;;2.83;0.93;;;;;;;;;;4938909;28;20136;-75
2021/07/07 02:05:57;;;;;;;2.45;0.82;;;;;;;;;;4947423;28;20039;-75
2021/07/07 02:08:23;;;;;;;1.48;0.88;;;;;;;;;;4945236;28;20126;-75
2021/07/07 02:10:50;;;;;;;1.50;1.20;;;;;;;;;;4938776;28;20523;-75
2021/07/07 02:13:16;;;;;;;1.90;0.88;;;;;;;;;;4944076;28;20067;-75
2021/07/07 02:15:43;;;;;;;1.83;0.93;;;;;;;;;;4955445;28;20055;-75
2021/07/07 02:18:09;;;;;;;2.15;1.00;;;;;;;;;;4945076;28;20065;-74
2021/07/07 02:20:40;;;;;;;1.20;1.05;;;;;;;;;;4947978;28;20105;-75
2021/07/07 02:23:06;;;;;;;1.42;1.00;;;;;;;;;;4941652;28;20070;-75
2021/07/07 02:25:34;;;;;;;1.98;1.00;;;;;;;;;;4946548;28;20055;-74
2021/07/07 02:28:01;;;;;;;2.10;1.20;;;;;;;;;;4946874;28;20050;-74
2021/07/07 02:30:29;;;;;;;3.00;1.30;;;;;;;;;;4948414;28;20117;-75
2021/07/07 02:32:56;;;;;;;1.42;1.00;;;;;;;;;;4946162;28;20106;-74
2021/07/07 02:35:24;;;;;;;1.58;0.90;;;;;;;;;;4946460;28;20442;-74
2021/07/07 02:37:53;;;;;;;1.45;0.90;;;;;;;;;;4948996;28;20058;-74
2021/07/07 02:40:20;;;;;;;2.22;1.00;;;;;;;;;;4947830;28;20071;-74
2021/07/07 02:42:47;;;;;;;2.05;1.08;;;;;;;;;;4947332;28;20114;-74
2021/07/07 02:45:14;;;;;;;1.75;1.00;;;;;;;;;;4947967;28;20070;-75
2021/07/07 02:47:41;;;;;;;4.13;1.02;;;;;;;;;;4946956;28;20571;-74
2021/07/07 02:50:08;;;;;;;1.55;0.93;;;;;;;;;;4942731;28;20082;-74
2021/07/07 02:52:35;;;;;;;1.60;1.00;;;;;;;;;;4948419;28;20125;-74
2021/07/07 02:55:01;;;;;;;1.52;1.05;;;;;;;;;;4945859;28;20063;-75
2021/07/07 02:57:28;;;;;;;1.88;1.00;;;;;;;;;;4942805;28;20067;-75
2021/07/07 02:59:54;;;;;;;1.83;0.85;;;;;;;;;;4948745;28;20058;-74
2021/07/07 03:02:20;;;;;;;1.30;1.00;;;;;;;;;;4948614;28;20071;-74
2021/07/07 03:04:47;;;;;;;1.23;0.90;;;;;;;;;;4949581;28;20066;-74
2021/07/07 03:07:14;;;;;;;1.65;1.00;;;;;;;;;;4947911;28;20051;-75
2021/07/07 03:09:40;;;;;;;1.30;1.00;;;;;;;;;;4949009;28;20062;-75
2021/07/07 03:12:07;;;;;;;1.35;0.70;;;;;;;;;;4946360;28;20090;-75
2021/07/07 03:14:33;;;;;;;1.60;1.00;;;;;;;;;;4959362;28;20062;-75
2021/07/07 03:16:59;;;;;;;2.55;0.95;;;;;;;;;;4949275;28;20060;-74
2021/07/07 03:19:26;;;;;;;1.25;0.88;;;;;;;;;;4949193;28;20496;-74
2021/07/07 03:21:52;;;;;;;1.75;1.10;;;;;;;;;;4947868;28;20055;-73
2021/07/07 03:24:19;;;;;;;2.67;1.27;;;;;;;;;;4945712;28;20074;-74
2021/07/07 03:26:45;;;;;;;1.60;0.82;;;;;;;;;;4949236;28;20063;-75
2021/07/07 03:29:11;;;;;;;1.63;0.90;;;;;;;;;;4948356;28;20059;-76
2021/07/07 03:31:38;;;;;;;3.40;0.90;;;;;;;;;;4949923;28;20066;-73
2021/07/07 03:34:04;;;;;;;1.70;1.00;;;;;;;;;;4949885;28;20031;-74
2021/07/07 03:36:31;;;;;;;1.70;0.88;;;;;;;;;;4942682;28;20071;-73
2021/07/07 03:38:57;;;;;;;2.63;0.90;;;;;;;;;;4949530;28;20836;-75
2021/07/07 03:41:23;;;;;;;1.35;1.00;;;;;;;;;;4947159;28;20059;-75
2021/07/07 03:43:50;;;;;;;3.58;1.10;;;;;;;;;;4928757;29;20048;-74
2021/07/07 03:46:17;;;;;;;1.95;0.90;;;;;;;;;;4943037;28;20073;-74
2021/07/07 03:48:44;;;;;;;1.80;1.10;;;;;;;;;;4962654;28;20039;-74
2021/07/07 03:51:10;;;;;;;4.72;0.90;;;;;;;;;;4950374;28;20454;-75
2021/07/07 03:53:37;;;;;;;2.20;1.17;;;;;;;;;;4951496;28;20051;-74
2021/07/07 03:56:03;;;;;;;2.05;1.08;;;;;;;;;;4951867;28;20055;-74
2021/07/07 03:58:30;;;;;;;1.50;1.10;;;;;;;;;;4951726;28;20579;-75
2021/07/07 04:00:56;;;;;;;1.55;0.98;;;;;;;;;;4950973;28;20106;-75
2021/07/07 04:03:22;;;;;;;2.72;1.15;;;;;;;;;;4950172;28;20501;-75
2021/07/07 04:05:49;;;;;;;2.17;0.90;;;;;;;;;;4951831;28;20071;-75
2021/07/07 04:08:15;;;;;;;2.25;1.00;;;;;;;;;;4950921;28;20074;-74
2021/07/07 04:10:42;;;;;;;1.85;1.05;;;;;;;;;;4949089;28;20481;-75
2021/07/07 04:13:08;;;;;;;2.28;0.82;;;;;;;;;;4948846;28;20070;-75
2021/07/07 04:15:34;;;;;;;1.63;0.90;;;;;;;;;;4946925;28;20075;-75
2021/07/07 04:18:01;;;;;;;2.08;1.40;;;;;;;;;;4952727;28;20116;-75
2021/07/07 04:20:27;;;;;;;2.35;1.20;;;;;;;;;;4941005;28;20115;-75
2021/07/07 04:22:54;;;;;;;2.58;1.00;;;;;;;;;;4951218;28;20484;-74
2021/07/07 04:25:20;;;;;;;1.52;0.90;;;;;;;;;;4945780;28;20063;-77
2021/07/07 04:27:47;;;;;;;3.15;1.00;;;;;;;;;;4947751;28;20059;-77
2021/07/07 04:30:16;;;;;;;2.13;1.15;;;;;;;;;;4951030;28;20063;-78
2021/07/07 04:32:42;;;;;;;1.95;1.13;;;;;;;;;;4950239;28;20125;-78
2021/07/07 04:35:09;;;;;;;3.95;1.30;;;;;;;;;;4949047;28;20070;-75
2021/07/07 04:37:36;;;;;;;3.17;1.30;;;;;;;;;;4950540;28;20106;-77
2021/07/07 04:40:04;;;;;;;1.85;1.08;;;;;;;;;;4947722;28;20492;-77
2021/07/07 04:42:31;;;;;;;2.15;1.20;;;;;;;;;;4949649;28;22815;-77
2021/07/07 04:44:57;;;;;;;4.35;1.50;;;;;;;;;;4942607;28;20129;-77
2021/07/07 04:47:24;;;;;;;3.15;1.48;;;;;;;;;;4941951;28;20142;-77
2021/07/07 04:49:50;;;;;;;3.55;1.27;;;;;;;;;;4950094;28;20055;-78
2021/07/07 04:52:17;;;;;;;5.38;1.60;;;;;;;;;;4951191;28;20061;-76
2021/07/07 04:54:43;;;;;;;3.90;1.40;;;;;;;;;;4945820;28;20570;-79
2021/07/07 04:57:11;;;;;;;2.78;1.40;;;;;;;;;;4944459;28;20043;-79
2021/07/07 04:59:37;;;;;;;3.03;1.17;;;;;;;;;;4944139;28;20586;-79
2021/07/07 05:02:03;;;;;;;3.00;1.40;;;;;;;;;;4949018;28;20067;-78
2021/07/07 05:04:30;;;;;;;2.60;1.25;;;;;;;;;;4956501;28;20060;-78
2021/07/07 05:06:56;;;;;;;2.97;1.33;;;;;;;;;;4947596;28;20071;-79
2021/07/07 05:09:23;;;;;;;4.75;1.45;;;;;;;;;;4943737;28;20058;-78
2021/07/07 05:11:50;;;;;;;3.33;1.27;;;;;;;;;;4948924;28;20062;-78
2021/07/07 05:14:16;;;;;;;2.40;1.27;;;;;;;;;;4948493;28;20078;-79
2021/07/07 05:16:43;;;;;;;2.35;1.30;;;;;;;;;;4947767;28;20063;-79
2021/07/07 05:19:10;;;;;;;3.03;1.40;;;;;;;;;;4949343;28;20524;-78
2021/07/07 05:21:37;;;;;;;6.72;1.60;;;;;;;;;;4946068;28;20074;-79
2021/07/07 05:24:04;;;;;;;3.42;1.52;;;;;;;;;;4938986;28;20067;-79
2021/07/07 05:26:31;;;;;;;4.65;1.60;;;;;;;;;;4924269;28;20502;-77
2021/07/07 05:28:57;;;;;;;5.47;1.50;;;;;;;;;;4944876;28;20039;-77
2021/07/07 05:31:23;;;;;;;6.47;1.63;;;;;;;;;;4950113;28;20059;-78
2021/07/07 05:33:53;;;;;;;3.42;1.42;;;;;;;;;;4945079;28;20082;-78
2021/07/07 05:36:19;;;;;;;5.57;1.30;;;;;;;;;;4942983;28;20055;-78
2021/07/07 05:38:46;;;;;;;6.10;1.52;;;;;;;;;;4944681;28;20129;-78
2021/07/07 05:41:12;;;;;;;4.30;1.38;;;;;;;;;;4946883;28;20594;-77
2021/07/07 05:43:38;;;;;;;2.85;1.20;;;;;;;;;;4941710;28;20067;-78
2021/07/07 05:46:05;;;;;;;4.65;1.35;;;;;;;;;;4943650;28;20067;-78
2021/07/07 05:48:31;;;;;;;4.65;1.38;;;;;;;;;;4946643;28;21414;-78
2021/07/07 05:50:57;;;;;;;6.32;1.85;;;;;;;;;;4938220;28;20082;-79
2021/07/07 05:53:24;;;;;;;2.50;1.38;;;;;;;;;;4937573;28;20507;-78
2021/07/07 05:55:51;;;;;;;3.22;1.48;;;;;;;;;;4943273;28;20075;-78
2021/07/07 05:58:17;;;;;;;3.53;1.30;;;;;;;;;;4944684;28;20035;-78
2021/07/07 06:00:44;;;;;;;4.20;1.60;;;;;;;;;;4949725;28;20110;-78
2021/07/07 06:03:11;;;;;;;3.42;1.35;;;;;;;;;;4949830;28;20059;-78
2021/07/07 06:05:37;;;;;;;3.20;1.20;;;;;;;;;;4949906;28;20051;-78
2021/07/07 06:08:04;;;;;;;6.68;1.65;;;;;;;;;;4946985;28;20062;-78
2021/07/07 06:10:30;;;;;;;5.88;1.80;;;;;;;;;;4942779;28;20062;-79
2021/07/07 06:12:57;;;;;;;5.65;1.50;;;;;;;;;;4948375;28;20063;-79
2021/07/07 06:15:24;;;;;;;5.65;1.60;;;;;;;;;;4938729;28;20067;-77
2021/07/07 06:17:50;;;;;;;3.45;1.20;;;;;;;;;;4946971;28;20078;-77
2021/07/07 06:20:17;;;;;;;6.40;1.70;;;;;;;;;;4947698;28;20094;-78
2021/07/07 06:22:44;;;;;;;4.25;1.30;;;;;;;;;;4948885;28;20592;-79
2021/07/07 06:25:11;;;;;;;3.22;1.33;;;;;;;;;;4946882;28;20066;-79
2021/07/07 06:27:40;;;;;;;4.00;1.38;;;;;;;;;;4942453;28;20527;-78
2021/07/07 06:30:07;;;;;;;4.25;1.33;;;;;;;;;;4945454;28;20087;-78
2021/07/07 06:32:33;;;;;;;3.08;1.35;;;;;;;;;;4948235;28;20122;-78
2021/07/07 06:35:03;;;;;;;5.88;1.30;;;;;;;;;;4942198;28;20046;-78
2021/07/07 06:37:30;;;;;;;4.15;1.52;;;;;;;;;;4945043;28;20054;-78
2021/07/07 06:39:56;;;;;;;5.10;1.60;;;;;;;;;;4940907;28;20435;-80
2021/07/07 06:42:22;;;;;;;4.10;1.33;;;;;;;;;;4947109;28;20039;-78
2021/07/07 06:44:49;;;;;;;8.70;1.40;;;;;;;;;;4949497;28;20077;-78
2021/07/07 06:47:21;;;;;;;4.65;1.33;;;;;;;;;;4937738;28;20067;-76
2021/07/07 06:49:47;;;;;;;5.60;1.20;;;;;;;;;;4947814;28;21055;-77
2021/07/07 06:52:15;;;;;;;5.00;1.25;;;;;;;;;;4945550;28;20117;-78
2021/07/07 06:54:42;;;;;;;4.85;1.27;;;;;;;;;;4943021;28;20070;-78
2021/07/07 06:57:09;;;;;;;5.60;1.50;;;;;;;;;;4939714;28;20051;-78
2021/07/07 06:59:36;;;;;;;4.57;1.50;;;;;;;;;;4954719;28;20441;-77
2021/07/07 07:02:03;;;;;;;2.60;1.20;;;;;;;;;;4944244;28;20070;-77
2021/07/07 07:04:30;;;;;;;4.72;1.33;;;;;;;;;;4946934;28;20071;-80
2021/07/07 07:06:57;;;;;;;4.20;1.35;;;;;;;;;;4941540;28;20066;-75
2021/07/07 07:09:24;;;;;;;5.57;1.55;;;;;;;;;;4946742;28;20070;-77
2021/07/07 07:11:51;;;;;;;4.72;1.30;;;;;;;;;;4951096;28;20082;-75
2021/07/07 07:14:17;;;;;;;5.40;1.20;;;;;;;;;;4944161;28;20631;-75
2021/07/07 07:16:45;;;;;;;4.95;1.20;;;;;;;;;;4943790;28;20059;-76
2021/07/07 07:19:13;;;;;;;3.28;1.38;;;;;;;;;;4948569;28;20059;-76
2021/07/07 07:21:40;;;;;;;3.65;1.42;;;;;;;;;;4944031;28;21235;-78
2021/07/07 07:24:07;;;;;;;10.32;1.90;;;;;;;;;;4946410;28;20055;-75
2021/07/07 07:26:34;;;;;;;8.48;1.42;;;;;;;;;;4949538;28;20371;-75
2021/07/07 07:29:01;;;;;;;7.07;1.50;;;;;;;;;;4950377;28;20074;-75
2021/07/07 07:31:27;;;;;;;5.53;1.35;;;;;;;;;;4948372;28;20059;-75
2021/07/07 07:33:54;;;;;;;6.78;1.58;;;;;;;;;;4944394;28;20055;-74
2021/07/07 07:36:21;;;;;;;7.50;1.60;;;;;;;;;;4943302;28;20059;-76
2021/07/07 07:38:50;;;;;;;6.03;1.60;;;;;;;;;;4945033;28;20071;-75
2021/07/07 07:41:16;;;;;;;8.05;1.67;;;;;;;;;;4946400;28;20063;-74
2021/07/07 07:43:43;;;;;;;4.63;1.30;;;;;;;;;;4943731;28;20063;-75
2021/07/07 07:46:09;;;;;;;8.00;1.73;;;;;;;;;;4954402;28;20054;-75
2021/07/07 07:48:36;;;;;;;4.90;1.27;;;;;;;;;;4947764;28;20047;-75
2021/07/07 07:51:03;;;;;;;4.40;1.42;;;;;;;;;;4942823;28;20471;-74
2021/07/07 07:53:29;;;;;;;4.07;1.30;;;;;;;;;;4945579;28;20078;-74
2021/07/07 07:55:56;;;;;;;7.53;1.50;;;;;;;;;;4944834;28;20066;-74
2021/07/07 07:58:22;;;;;;;6.80;1.75;;;;;;;;;;4892195;28;20122;-75
2021/07/07 08:00:50;;;;;;;4.32;1.30;;;;;;;;;;4933460;28;20063;-75
2021/07/07 08:03:17;;;;;;;4.40;1.35;;;;;;;;;;4946100;28;20375;-74
2021/07/07 08:05:43;;;;;;;9.10;1.35;;;;;;;;;;4946750;28;20055;-75
2021/07/07 08:08:10;;;;;;;5.43;1.50;;;;;;;;;;4950199;28;20514;-75
2021/07/07 08:10:37;;;;;;;5.18;1.40;;;;;;;;;;4949818;28;20039;-76
2021/07/07 08:13:05;;;;;;;3.15;1.33;;;;;;;;;;4939895;28;20056;-76
2021/07/07 08:15:32;;;;;;;5.88;1.60;;;;;;;;;;4947209;28;20050;-76
2021/07/07 08:17:58;;;;;;;4.28;1.38;;;;;;;;;;4948935;28;20168;-75
2021/07/07 08:20:25;;;;;;;10.38;1.58;;;;;;;;;;4942399;28;20449;-75
2021/07/07 08:22:52;;;;;;;6.32;1.35;;;;;;;;;;4952449;28;20074;-76
2021/07/07 08:25:19;;;;;;;3.53;1.42;;;;;;;;;;4950319;28;20077;-76
2021/07/07 08:27:46;;;;;;;3.83;1.45;;;;;;;;;;4947301;28;20129;-76
2021/07/07 08:30:13;;;;;;;3.92;1.30;;;;;;;;;;4944712;28;20058;-76
2021/07/07 08:32:40;;;;;;;4.57;1.50;;;;;;;;;;4935518;28;20583;-77
2021/07/07 08:35:07;;;;;;;6.50;1.30;;;;;;;;;;4941787;28;20070;-76
2021/07/07 08:37:34;;;;;;;4.60;1.50;;;;;;;;;;4950200;28;20062;-76
2021/07/07 08:40:00;;;;;;;5.13;1.50;;;;;;;;;;4943309;28;20130;-74
2021/07/07 08:42:27;;;;;;;7.43;1.60;;;;;;;;;;4949103;28;20069;-75
2021/07/07 08:44:53;;;;;;;7.10;1.48;;;;;;;;;;4945681;28;20530;-75
2021/07/07 08:47:19;;;;;;;6.10;1.33;;;;;;;;;;4938173;28;20082;-75
2021/07/07 08:49:46;;;;;;;4.03;1.35;;;;;;;;;;4939186;28;20063;-75
2021/07/07 08:52:16;;;;;;;8.95;1.75;;;;;;;;;;4940933;28;20558;-75
2021/07/07 08:54:46;;;;;;;5.75;1.55;;;;;;;;;;4941927;28;20299;-75
2021/07/07 08:57:13;;;;;;;5.90;1.60;;;;;;;;;;4946287;28;20070;-75
2021/07/07 08:59:39;;;;;;;5.18;1.48;;;;;;;;;;4942851;28;20110;-76
2021/07/07 09:02:13;;;;;;;3.25;1.45;;;;;;;;;;4943693;28;20055;-76
2021/07/07 09:04:43;;;;;;;5.18;1.67;;;;;;;;;;4942709;28;21487;-76
2021/07/07 09:07:10;;;;;;;6.22;1.48;;;;;;;;;;4939428;28;20067;-75
2021/07/07 09:09:41;;;;;;;4.40;1.50;;;;;;;;;;4943983;28;20039;-76
2021/07/07 09:12:13;;;;;;;5.90;1.50;;;;;;;;;;4941266;28;20063;-76
2021/07/07 09:14:42;;;;;;;8.15;1.70;;;;;;;;;;4939186;28;20358;-76
2021/07/07 09:17:12;;;;;;;4.97;1.60;;;;;;;;;;4949789;28;20567;-75
2021/07/07 09:19:39;;;;;;;5.80;1.50;;;;;;;;;;4946077;28;20098;-76
2021/07/07 09:22:08;;;;;;;5.03;1.63;;;;;;;;;;4945504;28;20047;-76
2021/07/07 09:24:36;;;;;;;3.08;1.52;;;;;;;;;;4945583;28;20067;-76
2021/07/07 09:27:07;;;;;;;4.93;1.63;;;;;;;;;;4949571;28;20066;-75
2021/07/07 09:29:33;;;;;;;;;;;;;;;;;;4929436;28;20114;-76
2021/07/07 09:32:10;;;;;;;3.63;1.45;;;;;;;;;;4929345;28;20576;-76
2021/07/07 09:34:37;;;;;;;5.55;1.58;;;;;;;;;;4944675;28;20063;-76
2021/07/07 09:37:04;;;;;;;3.95;1.45;;;;;;;;;;4951930;28;20028;-76
2021/07/07 09:39:31;;;;;;;4.18;1.63;;;;;;;;;;4948386;28;20060;-75
2021/07/07 09:41:57;;;;;;;6.80;1.60;;;;;;;;;;4947057;28;20575;-75
2021/07/07 09:44:23;;;;;;;4.63;1.80;;;;;;;;;;4934650;28;20128;-76
2021/07/07 09:46:50;;;;;;;3.15;1.38;;;;;;;;;;4945949;28;20032;-76
2021/07/07 09:49:16;;;;;;;5.30;1.48;;;;;;;;;;4944372;28;20090;-76
2021/07/07 09:51:49;;;;;;;5.18;1.50;;;;;;;;;;4943691;28;20066;-77
2021/07/07 09:54:15;;;;;;;4.32;1.60;;;;;;;;;;4930295;28;20071;-75
2021/07/07 09:56:41;;;;;;;3.38;1.45;;;;;;;;;;4944167;28;20078;-77
2021/07/07 09:59:08;;;;;;;4.20;1.80;;;;;;;;;;4942668;28;20063;-76
2021/07/07 10:01:34;;;;;;;4.60;1.40;;;;;;;;;;4936913;28;20085;-75
2021/07/07 10:04:01;;;;;;;4.93;1.50;;;;;;;;;;4945531;28;20031;-77
2021/07/07 10:06:28;;;;;;;3.88;1.38;;;;;;;;;;4935768;28;20066;-76
2021/07/07 10:08:54;;;;;;;4.50;1.50;;;;;;;;;;4942758;28;20059;-77
2021/07/07 10:11:21;;;;;;;6.90;1.65;;;;;;;;;;4936108;28;20070;-75
2021/07/07 10:13:48;;;;;;;4.43;1.70;;;;;;;;;;4939016;28;20046;-77
2021/07/07 10:16:18;;;;;;;3.50;1.60;;;;;;;;;;4938737;28;20054;-77
2021/07/07 10:18:45;;;;;;;7.03;1.75;;;;;;;;;;4942616;28;20575;-78
2021/07/07 10:21:12;;;;;;;8.23;2.20;;;;;;;;;;4942245;28;20063;-76
2021/07/07 10:23:39;;;;;;;6.72;2.00;;;;;;;;;;4956360;28;20704;-74
2021/07/07 10:26:07;;;;;;;18.40;3.03;;;;;;;;;;4946205;28;20504;-75
2021/07/07 10:28:34;;;;;;;14.80;3.28;;;;;;;;;;4942793;28;20566;-76
2021/07/07 10:31:02;;;;;;;14.43;2.67;;;;;;;;;;4943270;28;20040;-76
2021/07/07 10:33:31;;;;;;;6.80;2.17;;;;;;;;;;4948012;28;20047;-75
2021/07/07 10:36:16;;;;;;;9.50;2.38;;;;;;;;;;4946516;28;20059;-76
2021/07/07 10:38:49;;;;;;;6.22;2.08;;;;;;;;;;4945159;28;21211;-75
2021/07/07 10:41:16;;;;;;;7.28;2.08;;;;;;;;;;4947053;28;20507;-74
2021/07/07 10:43:46;;;;;;;6.35;2.15;;;;;;;;;;4944043;28;20044;-75
2021/07/07 10:46:14;;;;;;;5.68;1.77;;;;;;;;;;4948102;28;20027;-75
2021/07/07 10:48:40;;;;;;;7.82;1.80;;;;;;;;;;4947907;28;21337;-74
2021/07/07 10:51:12;;;;;;;8.18;2.38;;;;;;;;;;4949564;28;20114;-75
2021/07/07 10:53:39;;;;;;;5.60;1.90;;;;;;;;;;4947382;28;20092;-75
2021/07/07 10:56:06;;;;;;;5.65;2.22;;;;;;;;;;4946303;28;20456;-74
2021/07/07 10:58:34;;;;;;;6.20;2.15;;;;;;;;;;4949099;28;20247;-75
2021/07/07 11:01:01;;;;;;;5.78;2.25;;;;;;;;;;4948550;28;20067;-76
2021/07/07 11:03:32;;;;;;;6.22;2.03;;;;;;;;;;4942809;28;20143;-76
2021/07/07 11:06:01;;;;;;;5.25;1.88;;;;;;;;;;4953677;28;20062;-75
2021/07/07 11:08:32;;;;;;;5.88;1.90;;;;;;;;;;4940853;28;20118;-75
2021/07/07 11:10:59;;;;;;;5.00;1.80;;;;;;;;;;4950252;28;20045;-76
2021/07/07 11:13:27;;;;;;;6.28;1.98;;;;;;;;;;4943871;28;20039;-76
2021/07/07 11:15:55;;;;;;;4.38;1.80;;;;;;;;;;4951115;28;20062;-75
2021/07/07 11:18:22;;;;;;;6.35;1.90;;;;;;;;;;4947698;28;20059;-76
2021/07/07 11:20:49;;;;;;;8.40;2.10;;;;;;;;;;4945150;28;20059;-76
2021/07/07 11:23:16;;;;;;;3.88;1.80;;;;;;;;;;4949955;28;20062;-75
2021/07/07 11:25:42;;;;;;;5.25;1.50;;;;;;;;;;4946923;28;20118;-75
2021/07/07 11:28:21;;;;;;;6.20;2.08;;;;;;;;;;4953288;28;20563;-75
2021/07/07 11:30:47;;;;;;;3.97;1.42;;;;;;;;;;4949158;28;21515;-75
2021/07/07 11:33:14;;;;;;;5.10;1.80;;;;;;;;;;4951633;28;20129;-75
2021/07/07 11:35:42;;;;;;;6.40;2.08;;;;;;;;;;4952857;28;20059;-75
2021/07/07 11:38:10;;;;;;;4.43;1.98;;;;;;;;;;4952365;28;20114;-75
2021/07/07 11:40:38;;;;;;;5.43;2.08;;;;;;;;;;4950086;28;20066;-74
2021/07/07 11:43:08;;;;;;;4.32;2.00;;;;;;;;;;4953518;28;20106;-74
2021/07/07 11:45:39;;;;;;;3.03;2.05;;;;;;;;;;4948512;28;20579;-75
2021/07/07 11:48:23;;;;;;;6.88;2.28;;;;;;;;;;4951377;28;20090;-75
2021/07/07 11:50:53;;;;;;;5.50;1.88;;;;;;;;;;4950754;28;21333;-75
2021/07/07 11:53:20;;;;;;;3.78;2.20;;;;;;;;;;4952058;28;20094;-75
2021/07/07 11:55:51;;;;;;;4.55;1.77;;;;;;;;;;4949307;28;20055;-76
2021/07/07 11:58:18;;;;;;;3.20;1.77;;;;;;;;;;4950563;28;20055;-75
2021/07/07 12:00:45;;;;;;;6.90;2.20;;;;;;;;;;4949900;28;20083;-76
2021/07/07 12:03:12;;;;;;;4.90;2.28;;;;;;;;;;4946959;28;20578;-76
2021/07/07 12:05:38;;;;;;;6.70;2.00;;;;;;;;;;4950043;28;20118;-76
2021/07/07 12:08:34;;;;;;;6.57;2.00;;;;;;;;;;4952625;28;20055;-74
2021/07/07 12:11:09;;;;;;;6.95;2.22;;;;;;;;;;4953822;28;21347;-75
2021/07/07 12:13:36;;;;;;;4.93;2.10;;;;;;;;;;4950347;28;20059;-75
2021/07/07 12:16:13;;;;;;;4.38;1.90;;;;;;;;;;4949953;28;20492;-75
2021/07/07 12:18:40;;;;;;;4.90;1.70;;;;;;;;;;4950728;28;20469;-76
2021/07/07 12:21:06;;;;;;;5.40;1.88;;;;;;;;;;4952629;28;20047;-75
2021/07/07 12:23:46;;;;;;;3.90;1.88;;;;;;;;;;4951712;28;20063;-75
2021/07/07 12:26:13;;;;;;;3.75;1.83;;;;;;;;;;4948721;28;20071;-76
2021/07/07 12:28:40;;;;;;;8.10;2.50;;;;;;;;;;4950925;28;21376;-76
2021/07/07 12:31:07;;;;;;;3.63;1.83;;;;;;;;;;4946528;28;20059;-75
2021/07/07 12:33:33;;;;;;;7.93;1.80;;;;;;;;;;4950353;28;20063;-74
2021/07/07 12:35:59;;;;;;;5.13;2.05;;;;;;;;;;4947759;28;20079;-75
2021/07/07 12:38:26;;;;;;;3.28;1.70;;;;;;;;;;4935419;28;20067;-74
2021/07/07 12:40:56;;;;;;;4.05;1.85;;;;;;;;;;4949528;28;20455;-74
2021/07/07 12:43:28;;;;;;;3.58;2.10;;;;;;;;;;4931424;28;20071;-75
2021/07/07 12:46:04;;;;;;;4.13;1.73;;;;;;;;;;4945310;28;20074;-74
2021/07/07 12:48:31;;;;;;;4.28;1.70;;;;;;;;;;4941956;28;20099;-77
2021/07/07 12:50:57;;;;;;;6.50;2.30;;;;;;;;;;4945916;28;20115;-76
2021/07/07 12:53:36;;;;;;;8.20;2.25;;;;;;;;;;4946209;28;20078;-76
2021/07/07 12:56:06;;;;;;;5.30;2.28;;;;;;;;;;4951304;28;20051;-76
2021/07/07 12:58:33;;;;;;;6.03;2.08;;;;;;;;;;4951276;28;20055;-76
2021/07/07 13:00:59;;;;;;;6.22;2.00;;;;;;;;;;4942041;28;20174;-75
2021/07/07 13:03:35;;;;;;;8.13;2.50;;;;;;;;;;4939942;28;20062;-74
2021/07/07 13:06:04;;;;;;;5.38;2.30;;;;;;;;;;4942874;28;20118;-75
2021/07/07 13:08:43;;;;;;;5.40;2.10;;;;;;;;;;4941919;28;20087;-78
2021/07/07 13:11:19;;;;;;;7.60;2.10;;;;;;;;;;4943653;28;20066;-76
2021/07/07 13:13:46;;;;;;;5.88;2.40;;;;;;;;;;4938996;28;21474;-78
2021/07/07 13:16:13;;;;;;;5.47;1.90;;;;;;;;;;4954192;28;20039;-79
2021/07/07 13:19:01;;;;;;;8.23;2.33;;;;;;;;;;4948799;28;20461;-78
2021/07/07 13:21:29;;;;;;;6.60;2.30;;;;;;;;;;4947887;28;20059;-78
2021/07/07 13:23:55;;;;;;;5.82;2.25;;;;;;;;;;4951125;28;20444;-77
2021/07/07 13:26:38;;;;;;;4.18;1.85;;;;;;;;;;4943512;28;20594;-78
2021/07/07 13:29:17;;;;;;;5.18;2.00;;;;;;;;;;4947173;28;20563;-77
2021/07/07 13:31:43;;;;;;;4.65;2.20;;;;;;;;;;4939812;28;20040;-77
2021/07/07 13:34:10;;;;;;;6.50;2.25;;;;;;;;;;4953743;28;20066;-77
2021/07/07 13:36:37;;;;;;;6.45;2.00;;;;;;;;;;4942693;28;20075;-77
2021/07/07 13:39:07;;;;;;;5.45;2.10;;;;;;;;;;4947036;28;20078;-77
2021/07/07 13:41:33;;;;;;;7.30;2.28;;;;;;;;;;4941358;28;20082;-77
2021/07/07 13:44:00;;;;;;;6.35;1.85;;;;;;;;;;4944452;28;20058;-77
2021/07/07 13:46:26;;;;;;;6.63;2.00;;;;;;;;;;4949181;28;20054;-78
2021/07/07 13:48:52;;;;;;;5.72;1.95;;;;;;;;;;4940984;28;20094;-78
2021/07/07 13:51:19;;;;;;;4.47;2.00;;;;;;;;;;4946573;28;20032;-77
2021/07/07 13:53:45;;;;;;;5.88;2.03;;;;;;;;;;4948877;28;20051;-77
2021/07/07 13:56:11;;;;;;;5.82;2.30;;;;;;;;;;4948513;28;20519;-77
2021/07/07 13:58:38;;;;;;;3.92;1.50;;;;;;;;;;4946798;28;20059;-78
2021/07/07 14:01:04;;;;;;;4.75;2.00;;;;;;;;;;4937262;28;20488;-77
2021/07/07 14:03:31;;;;;;;3.78;1.90;;;;;;;;;;4938681;28;20071;-77
2021/07/07 14:05:58;;;;;;;4.10;1.95;;;;;;;;;;4938433;28;20081;-77
2021/07/07 14:08:24;;;;;;;6.47;1.65;;;;;;;;;;4946159;28;20055;-78
2021/07/07 14:10:51;;;;;;;5.00;2.05;;;;;;;;;;4942582;28;20066;-78
2021/07/07 14:13:17;;;;;;;5.38;1.98;;;;;;;;;;4937482;28;20496;-78
2021/07/07 14:15:44;;;;;;;3.63;1.42;;;;;;;;;;4940401;28;20063;-77
2021/07/07 14:18:10;;;;;;;4.20;1.75;;;;;;;;;;4920584;28;20070;-81
2021/07/07 14:20:36;;;;;;;4.63;1.45;;;;;;;;;;4919873;28;21001;-82
2021/07/07 14:23:03;;;;;;;4.40;1.70;;;;;;;;;;4928148;28;21389;-81
2021/07/07 14:25:30;;;;;;;4.20;1.60;;;;;;;;;;4933604;28;20511;-81
2021/07/07 14:27:57;;;;;;;2.88;1.67;;;;;;;;;;4940990;28;20051;-81
2021/07/07 14:30:23;;;;;;;3.78;1.58;;;;;;;;;;4942628;28;20503;-81
2021/07/07 14:32:49;;;;;;;3.50;1.70;;;;;;;;;;4947105;28;20055;-81
2021/07/07 14:35:17;;;;;;;3.83;1.70;;;;;;;;;;4942498;28;20648;-81
2021/07/07 14:37:44;;;;;;;4.65;1.65;;;;;;;;;;4938700;28;20066;-82
2021/07/07 14:40:10;;;;;;;4.63;1.50;;;;;;;;;;4944530;28;20058;-81
2021/07/07 14:42:37;;;;;;;1.95;1.30;;;;;;;;;;4943680;28;20059;-81
2021/07/07 14:45:05;;;;;;;4.72;1.52;;;;;;;;;;4954320;28;20774;-81